Time;durP1;ratioP1;P1;durP2;ratioP2;P2;SDS_P1;SDS_P2;PMS_P1;PMS_P2;Temp;Humidity;BMP_temperature;BMP_pressure;BME280_temperature;BME280_humidity;BME280_pressure;Samples;Min_cycle;Max_cycle;Signal;HPM_P1;HPM_P2
2022/07/24 00:01:33;;;;;;;4.90;3.83;;;18.30;99.90;;;;;;5002223;28;20265;-77
2022/07/24 00:03:59;;;;;;;4.03;3.73;;;18.20;99.90;;;;;;5021367;28;20220;-80
2022/07/24 00:06:24;;;;;;;4.90;3.90;;;18.10;99.90;;;;;;5003674;28;20198;-80
2022/07/24 00:08:50;;;;;;;4.93;4.03;;;18.20;99.90;;;;;;5004317;28;20285;-80
2022/07/24 00:11:16;;;;;;;5.53;4.13;;;18.20;99.90;;;;;;5020563;28;20637;-80
2022/07/24 00:13:42;;;;;;;4.03;3.73;;;18.10;99.90;;;;;;5002924;28;20205;-77
2022/07/24 00:16:08;;;;;;;4.20;3.90;;;18.20;99.90;;;;;;5001107;28;20576;-77
2022/07/24 00:18:34;;;;;;;4.43;4.03;;;18.00;99.90;;;;;;5001185;28;20198;-77
2022/07/24 00:20:59;;;;;;;4.57;4.17;;;18.10;99.90;;;;;;5001677;28;20652;-77
2022/07/24 00:23:25;;;;;;;4.90;4.40;;;18.10;99.90;;;;;;5001135;28;20185;-77
2022/07/24 00:25:52;;;;;;;4.37;3.97;;;18.00;99.90;;;;;;5001100;28;20289;-77
2022/07/24 00:28:17;;;;;;;4.60;4.20;;;17.90;99.90;;;;;;5001316;28;20182;-77
2022/07/24 00:30:43;;;;;;;4.40;4.00;;;17.90;99.90;;;;;;5017618;28;20228;-77
2022/07/24 00:33:09;;;;;;;4.80;4.33;;;17.90;99.90;;;;;;5001418;28;20229;-77
2022/07/24 00:35:35;;;;;;;4.40;4.00;;;17.90;99.90;;;;;;5001179;28;20202;-77
2022/07/24 00:38:01;;;;;;;4.50;4.20;;;17.90;99.90;;;;;;5016943;28;20309;-77
2022/07/24 00:40:29;;;;;;;5.10;4.00;;;18.00;99.90;;;;;;5017621;28;20186;-77
2022/07/24 00:42:56;;;;;;;3.90;3.57;;;18.00;99.90;;;;;;5017158;28;20174;-77
2022/07/24 00:45:21;;;;;;;4.27;3.87;;;18.10;99.90;;;;;;5001023;28;20201;-77
2022/07/24 00:47:47;;;;;;;4.50;4.10;;;18.10;99.90;;;;;;5001124;28;20174;-77
2022/07/24 00:50:13;;;;;;;4.27;3.87;;;18.00;99.90;;;;;;5017237;28;20188;-77
2022/07/24 00:52:39;;;;;;;4.13;3.73;;;18.00;99.90;;;;;;5000738;28;20175;-77
2022/07/24 00:55:05;;;;;;;3.97;3.60;;;18.00;99.90;;;;;;5000613;28;20213;-77
2022/07/24 00:57:31;;;;;;;5.53;4.00;;;17.90;99.90;;;;;;5000092;28;20218;-77
2022/07/24 00:59:57;;;;;;;4.37;3.97;;;18.00;99.90;;;;;;5000449;28;20598;-77
2022/07/24 01:02:23;;;;;;;4.37;3.97;;;18.00;99.90;;;;;;5016861;28;20228;-77
2022/07/24 01:04:49;;;;;;;4.47;4.00;;;18.00;99.90;;;;;;5000319;28;20194;-77
2022/07/24 01:07:16;;;;;;;4.00;3.70;;;18.00;99.90;;;;;;5000353;28;20178;-77
2022/07/24 01:09:41;;;;;;;4.77;4.07;;;17.90;99.90;;;;;;5000854;28;20175;-77
2022/07/24 01:12:07;;;;;;;4.67;4.27;;;17.80;99.90;;;;;;5016922;28;20224;-77
2022/07/24 01:14:33;;;;;;;4.27;3.87;;;17.70;99.90;;;;;;5016749;28;20263;-77
2022/07/24 01:17:00;;;;;;;4.27;3.90;;;17.70;99.90;;;;;;5016754;28;20535;-77
2022/07/24 01:19:25;;;;;;;4.43;4.00;;;17.70;99.90;;;;;;5016554;28;20208;-77
2022/07/24 01:21:53;;;;;;;4.50;4.10;;;17.70;99.90;;;;;;5000080;28;20190;-77
2022/07/24 01:24:19;;;;;;;4.30;3.90;;;17.60;99.90;;;;;;5016324;28;20174;-77
2022/07/24 01:26:46;;;;;;;4.37;3.97;;;17.60;99.90;;;;;;5016773;28;20178;-77
2022/07/24 01:29:12;;;;;;;4.40;4.00;;;17.70;99.90;;;;;;5034116;28;20640;-77
2022/07/24 01:31:37;;;;;;;5.93;3.87;;;17.50;99.90;;;;;;5016287;28;20268;-77
2022/07/24 01:34:04;;;;;;;4.20;3.90;;;17.60;99.90;;;;;;5016196;28;20233;-77
2022/07/24 01:36:29;;;;;;;4.33;3.87;;;17.40;99.90;;;;;;5000036;28;20189;-77
2022/07/24 01:38:55;;;;;;;4.90;3.90;;;17.40;99.90;;;;;;4999826;28;20210;-77
2022/07/24 01:41:21;;;;;;;3.90;3.40;;;17.30;99.90;;;;;;5016065;28;20175;-77
2022/07/24 01:43:46;;;;;;;4.03;3.60;;;17.10;99.90;;;;;;5000010;28;20205;-77
2022/07/24 01:46:12;;;;;;;4.27;3.67;;;17.10;99.90;;;;;;4999903;28;20288;-77
2022/07/24 01:48:42;;;;;;;3.83;3.53;;;17.10;99.90;;;;;;5016022;28;20179;-77
2022/07/24 01:51:08;;;;;;;4.50;3.70;;;17.00;99.90;;;;;;5000415;28;20191;-77
2022/07/24 01:53:34;;;;;;;4.10;3.70;;;16.90;99.90;;;;;;5015992;28;20240;-77
2022/07/24 01:56:00;;;;;;;5.43;4.03;;;16.90;99.90;;;;;;4999662;28;20210;-77
2022/07/24 01:58:25;;;;;;;4.63;3.40;;;17.00;99.90;;;;;;4999502;28;20577;-77
2022/07/24 02:00:51;;;;;;;3.93;3.63;;;17.10;99.90;;;;;;5015994;28;20576;-77
2022/07/24 02:03:17;;;;;;;4.37;3.77;;;17.20;99.90;;;;;;4999668;28;20185;-77
2022/07/24 02:05:43;;;;;;;3.87;3.40;;;17.30;99.90;;;;;;4999305;28;20226;-77
2022/07/24 02:08:08;;;;;;;3.83;3.50;;;17.20;99.90;;;;;;4998645;28;20216;-77
2022/07/24 02:10:34;;;;;;;5.20;3.60;;;17.10;99.90;;;;;;4999217;28;20667;-77
2022/07/24 02:13:00;;;;;;;4.20;3.80;;;17.10;99.90;;;;;;5015534;28;20202;-77
2022/07/24 02:15:26;;;;;;;3.90;3.60;;;16.80;99.90;;;;;;4999085;28;20201;-77
2022/07/24 02:17:54;;;;;;;3.83;3.53;;;16.70;99.90;;;;;;4998993;28;20213;-77
2022/07/24 02:20:20;;;;;;;4.07;3.67;;;16.70;99.90;;;;;;4999308;28;20620;-77
2022/07/24 02:22:46;;;;;;;4.10;3.70;;;16.70;99.90;;;;;;5015392;28;20217;-77
2022/07/24 02:25:12;;;;;;;4.20;3.73;;;16.70;99.90;;;;;;4999261;28;20300;-77
2022/07/24 02:27:38;;;;;;;3.83;3.43;;;16.70;99.90;;;;;;5015410;28;20269;-77
2022/07/24 02:30:07;;;;;;;4.73;3.70;;;16.70;99.90;;;;;;5015499;28;20277;-77
2022/07/24 02:32:33;;;;;;;3.87;3.57;;;16.60;99.90;;;;;;5015471;28;20676;-77
2022/07/24 02:34:58;;;;;;;3.93;3.63;;;16.50;99.90;;;;;;5015095;28;20206;-77
2022/07/24 02:37:24;;;;;;;4.13;3.83;;;16.60;99.90;;;;;;4998556;28;20672;-77
2022/07/24 02:39:50;;;;;;;3.77;3.47;;;16.60;99.90;;;;;;4998876;28;20178;-77
2022/07/24 02:42:15;;;;;;;3.83;3.43;;;16.60;99.90;;;;;;5015419;28;20236;-77
2022/07/24 02:44:41;;;;;;;4.87;3.80;;;16.60;99.90;;;;;;5014998;28;20198;-77
2022/07/24 02:47:06;;;;;;;4.10;3.70;;;16.60;99.90;;;;;;4998525;28;20206;-77
2022/07/24 02:49:32;;;;;;;5.27;3.70;;;16.60;99.90;;;;;;4998630;28;20188;-77
2022/07/24 02:51:58;;;;;;;3.90;3.60;;;16.60;99.90;;;;;;4998911;28;20556;-77
2022/07/24 02:54:23;;;;;;;3.93;3.63;;;16.70;99.90;;;;;;5032585;28;20198;-77
2022/07/24 02:56:49;;;;;;;4.77;3.50;;;16.70;99.90;;;;;;5014755;28;20625;-77
2022/07/24 02:59:15;;;;;;;3.90;3.40;;;16.80;99.90;;;;;;4998401;28;20302;-77
2022/07/24 03:01:40;;;;;;;3.80;3.50;;;16.80;99.90;;;;;;4999024;28;20213;-77
2022/07/24 03:04:06;;;;;;;3.60;3.30;;;16.90;99.90;;;;;;4998831;28;20186;-77
2022/07/24 03:06:32;;;;;;;3.60;3.30;;;17.00;99.90;;;;;;5014761;28;20189;-77
2022/07/24 03:08:57;;;;;;;4.00;3.60;;;17.00;99.90;;;;;;4998357;28;20178;-77
2022/07/24 03:11:23;;;;;;;4.20;3.80;;;17.10;99.90;;;;;;4998896;28;20184;-77
2022/07/24 03:13:48;;;;;;;3.70;3.40;;;17.00;99.90;;;;;;5014941;28;20179;-77
2022/07/24 03:16:16;;;;;;;4.10;3.80;;;16.80;99.90;;;;;;5014710;28;20241;-77
2022/07/24 03:18:45;;;;;;;3.70;3.40;;;16.70;99.90;;;;;;5015042;28;20225;-77
2022/07/24 03:21:15;;;;;;;5.17;3.70;;;16.70;99.90;;;;;;5002193;28;20201;-77
2022/07/24 03:23:41;;;;;;;4.10;3.80;;;16.70;99.90;;;;;;5002434;28;20548;-77
2022/07/24 03:26:06;;;;;;;4.17;3.43;;;16.80;99.90;;;;;;5018436;28;20190;-77
2022/07/24 03:28:32;;;;;;;4.00;3.60;;;16.80;99.90;;;;;;5018562;28;20185;-77
2022/07/24 03:30:58;;;;;;;5.67;3.90;;;16.90;99.90;;;;;;5018517;28;20549;-77
2022/07/24 03:33:23;;;;;;;4.13;3.83;;;16.70;99.90;;;;;;5018961;28;20170;-77
2022/07/24 03:35:49;;;;;;;4.70;3.80;;;16.70;99.90;;;;;;5002399;28;20198;-77
2022/07/24 03:38:14;;;;;;;4.20;3.80;;;16.70;99.90;;;;;;5018087;28;20230;-77
2022/07/24 03:40:40;;;;;;;4.60;4.20;;;16.60;99.90;;;;;;5018393;28;20175;-77
2022/07/24 03:43:06;;;;;;;4.23;3.90;;;16.70;99.90;;;;;;5001953;28;20172;-77
2022/07/24 03:45:31;;;;;;;3.93;3.63;;;16.70;99.90;;;;;;5001833;28;20267;-77
2022/07/24 03:47:57;;;;;;;4.00;3.70;;;16.60;99.90;;;;;;5018501;28;20192;-77
2022/07/24 03:50:23;;;;;;;4.20;3.80;;;16.70;99.90;;;;;;5001902;28;20182;-77
2022/07/24 03:52:49;;;;;;;4.00;3.70;;;16.60;99.90;;;;;;5001883;28;20202;-77
2022/07/24 03:55:15;;;;;;;5.07;3.70;;;16.60;99.90;;;;;;5018232;28;20225;-77
2022/07/24 03:57:40;;;;;;;3.97;3.67;;;16.60;99.90;;;;;;5001573;28;20206;-77
2022/07/24 04:00:07;;;;;;;4.10;3.70;;;16.70;99.90;;;;;;5018148;28;20178;-77
2022/07/24 04:02:33;;;;;;;4.90;3.53;;;16.70;99.90;;;;;;5018184;28;20171;-77
2022/07/24 04:04:58;;;;;;;4.10;3.67;;;16.50;99.90;;;;;;5001801;28;20191;-77
2022/07/24 04:07:24;;;;;;;4.50;4.10;;;16.40;99.90;;;;;;5001428;28;20182;-77
2022/07/24 04:09:49;;;;;;;4.33;3.93;;;16.50;99.90;;;;;;5001848;28;20265;-77
2022/07/24 04:12:15;;;;;;;4.17;3.77;;;16.50;99.90;;;;;;5017901;28;20224;-77
2022/07/24 04:14:41;;;;;;;4.30;3.90;;;16.60;99.90;;;;;;5001707;28;20205;-77
2022/07/24 04:17:06;;;;;;;4.30;3.90;;;16.60;99.90;;;;;;5017570;28;20251;-77
2022/07/24 04:19:32;;;;;;;4.37;3.97;;;16.70;99.90;;;;;;5001681;28;20198;-77
2022/07/24 04:21:58;;;;;;;4.63;4.23;;;16.70;99.90;;;;;;5018103;28;20217;-77
2022/07/24 04:24:24;;;;;;;4.27;3.87;;;16.70;99.90;;;;;;5001267;28;20190;-76
2022/07/24 04:26:49;;;;;;;4.47;4.07;;;16.70;99.90;;;;;;5017520;28;20668;-77
2022/07/24 04:29:15;;;;;;;5.17;4.77;;;16.60;99.90;;;;;;5001185;28;20186;-77
2022/07/24 04:31:41;;;;;;;5.20;4.80;;;16.70;99.90;;;;;;5000568;28;20190;-77
2022/07/24 04:34:21;;;;;;;5.17;4.67;;;16.70;99.90;;;;;;5001106;28;20209;-77
2022/07/24 04:36:47;;;;;;;5.10;4.70;;;16.70;99.90;;;;;;5001301;28;20265;-77
2022/07/24 04:39:13;;;;;;;5.67;4.80;;;16.80;99.90;;;;;;5000799;28;20775;-77
2022/07/24 04:41:39;;;;;;;6.23;4.93;;;16.80;99.90;;;;;;5017541;28;20224;-77
2022/07/24 04:44:05;;;;;;;5.23;4.73;;;16.80;99.90;;;;;;5017491;28;20209;-77
2022/07/24 04:46:31;;;;;;;5.57;4.90;;;16.90;99.90;;;;;;5017389;28;20202;-77
2022/07/24 04:48:56;;;;;;;5.67;5.17;;;16.90;99.90;;;;;;5017339;28;20261;-77
2022/07/24 04:51:22;;;;;;;5.73;5.13;;;16.90;99.90;;;;;;5001025;28;20221;-75
2022/07/24 04:53:48;;;;;;;5.70;5.20;;;16.80;99.90;;;;;;5001416;28;20179;-76
2022/07/24 04:56:14;;;;;;;5.70;5.20;;;16.90;99.90;;;;;;5054043;23;20232;-76
2022/07/24 04:58:39;;;;;;;5.40;4.90;;;16.90;99.90;;;;;;5056161;28;20200;-76
2022/07/24 05:01:05;;;;;;;5.63;5.13;;;16.90;99.90;;;;;;5023130;28;20180;-77
2022/07/24 05:03:30;;;;;;;5.67;5.17;;;16.90;99.90;;;;;;5039579;28;20173;-76
2022/07/24 05:05:56;;;;;;;6.07;5.50;;;16.90;99.90;;;;;;5023133;28;20189;-76
2022/07/24 05:08:22;;;;;;;5.40;4.90;;;16.90;99.90;;;;;;5022702;28;20173;-76
2022/07/24 05:10:47;;;;;;;5.20;4.70;;;16.80;99.90;;;;;;5056333;28;20180;-83
2022/07/24 05:13:13;;;;;;;6.30;5.13;;;16.80;99.90;;;;;;5039724;28;20173;-76
2022/07/24 05:15:38;;;;;;;5.03;4.63;;;16.90;99.90;;;;;;5022749;28;20197;-76
2022/07/24 05:18:04;;;;;;;5.13;4.67;;;16.80;99.90;;;;;;5022624;28;20714;-76
2022/07/24 05:20:30;;;;;;;6.33;4.87;;;16.80;99.90;;;;;;5023027;28;20173;-76
2022/07/24 05:22:55;;;;;;;7.13;5.33;;;16.80;99.90;;;;;;5039127;28;20176;-76
2022/07/24 05:25:21;;;;;;;5.30;4.80;;;17.00;99.90;;;;;;5039102;28;20193;-76
2022/07/24 05:27:46;;;;;;;5.43;5.00;;;17.00;99.90;;;;;;5039072;28;20173;-75
2022/07/24 05:30:12;;;;;;;5.33;4.83;;;17.10;99.90;;;;;;5039085;28;20218;-81
2022/07/24 05:32:38;;;;;;;5.57;4.67;;;17.10;99.90;;;;;;5055814;28;20569;-75
2022/07/24 05:35:04;;;;;;;4.80;4.40;;;17.10;99.90;;;;;;5055461;28;20203;-75
2022/07/24 05:37:30;;;;;;;5.60;5.10;;;17.20;99.90;;;;;;5055010;28;20254;-75
2022/07/24 05:39:55;;;;;;;5.40;4.93;;;17.20;99.90;;;;;;5039236;28;20173;-75
2022/07/24 05:42:21;;;;;;;5.43;4.90;;;17.30;99.90;;;;;;5038918;28;20196;-75
2022/07/24 05:44:47;;;;;;;5.77;5.23;;;17.30;99.90;;;;;;5038722;28;20192;-75
2022/07/24 05:47:12;;;;;;;6.20;5.37;;;17.40;99.90;;;;;;5055073;28;20180;-76
2022/07/24 05:49:38;;;;;;;6.73;5.00;;;17.40;99.90;;;;;;5038661;28;20634;-75
2022/07/24 05:52:04;;;;;;;5.70;5.20;;;17.50;99.90;;;;;;5055285;28;20176;-75
2022/07/24 05:54:29;;;;;;;5.30;4.90;;;17.50;99.90;;;;;;5038364;28;20180;-75
2022/07/24 05:56:55;;;;;;;5.87;5.27;;;17.50;99.90;;;;;;5038594;28;20647;-75
2022/07/24 05:59:21;;;;;;;5.73;5.23;;;17.50;99.90;;;;;;5055169;28;20205;-76
2022/07/24 06:01:46;;;;;;;5.90;5.30;;;17.40;99.90;;;;;;5038474;28;20174;-75
2022/07/24 06:04:12;;;;;;;5.70;5.13;;;17.40;99.90;;;;;;5054966;28;20208;-75
2022/07/24 06:06:37;;;;;;;5.90;5.30;;;17.50;99.90;;;;;;5054610;28;20208;-75
2022/07/24 06:09:04;;;;;;;6.23;5.73;;;17.60;99.90;;;;;;5038279;28;20196;-75
2022/07/24 06:11:29;;;;;;;5.77;5.27;;;17.50;99.90;;;;;;5054873;28;20674;-75
2022/07/24 06:13:55;;;;;;;6.27;5.63;;;17.70;99.90;;;;;;5054767;28;20222;-75
2022/07/24 06:16:20;;;;;;;5.80;5.20;;;17.80;99.90;;;;;;5038166;28;20616;-75
2022/07/24 06:18:47;;;;;;;7.47;6.40;;;17.80;99.90;;;;;;5037948;28;20223;-76
2022/07/24 06:21:13;;;;;;;7.23;5.67;;;17.90;99.90;;;;;;5038338;28;20200;-76
2022/07/24 06:23:38;;;;;;;6.63;5.93;;;18.00;99.90;;;;;;5021529;28;20201;-76
2022/07/24 06:26:04;;;;;;;5.70;5.20;;;18.10;99.90;;;;;;5037941;28;20189;-76
2022/07/24 06:28:30;;;;;;;6.00;5.43;;;18.30;99.90;;;;;;5054556;28;20184;-76
2022/07/24 06:30:57;;;;;;;5.87;5.27;;;18.40;99.90;;;;;;5037805;28;20216;-76
2022/07/24 06:33:22;;;;;;;6.43;5.47;;;18.50;99.90;;;;;;5021684;28;20181;-76
2022/07/24 06:35:48;;;;;;;6.57;5.97;;;18.60;99.90;;;;;;5021191;28;20311;-78
2022/07/24 06:38:15;;;;;;;6.40;5.80;;;18.60;99.90;;;;;;5037675;28;20213;-78
2022/07/24 06:40:41;;;;;;;8.73;5.50;;;18.70;99.90;;;;;;5038156;28;20284;-78
2022/07/24 06:43:07;;;;;;;6.33;5.60;;;18.90;99.90;;;;;;5054293;28;20252;-78
2022/07/24 06:45:33;;;;;;;6.93;5.80;;;19.10;99.90;;;;;;5037636;28;20213;-78
2022/07/24 06:48:02;;;;;;;5.93;5.40;;;19.10;99.90;;;;;;5037592;28;20185;-76
2022/07/24 06:50:29;;;;;;;5.50;5.00;;;19.10;99.90;;;;;;5021160;28;20184;-76
2022/07/24 06:52:55;;;;;;;4.87;4.43;;;19.10;99.90;;;;;;5054080;28;20177;-76
2022/07/24 06:55:21;;;;;;;5.10;4.57;;;19.10;99.90;;;;;;5053877;28;20218;-76
2022/07/24 06:57:47;;;;;;;5.13;4.63;;;19.30;99.90;;;;;;5054153;28;20200;-76
2022/07/24 07:00:13;;;;;;;6.47;4.63;;;19.50;99.90;;;;;;5037928;28;20223;-75
2022/07/24 07:02:39;;;;;;;4.80;4.40;;;19.60;99.90;;;;;;5037361;28;20173;-76
2022/07/24 07:05:06;;;;;;;4.70;4.30;;;19.60;99.90;;;;;;5071817;28;20555;-77
2022/07/24 07:07:32;;;;;;;6.53;4.43;;;19.70;99.90;;;;;;5071762;28;20169;-75
2022/07/24 07:09:58;;;;;;;5.50;4.13;;;19.80;99.90;;;;;;5037534;28;20248;-75
2022/07/24 07:12:23;;;;;;;4.82;4.15;;;20.00;99.90;;;;;;5037528;28;20177;-75
2022/07/24 07:14:49;;;;;;;5.68;3.97;;;20.20;99.90;;;;;;5037400;28;20193;-75
2022/07/24 07:17:17;;;;;;;4.82;4.10;;;20.30;99.90;;;;;;5020665;28;20242;-75
2022/07/24 07:19:43;;;;;;;5.57;4.18;;;20.40;99.90;;;;;;5021757;28;20222;-75
2022/07/24 07:22:10;;;;;;;5.07;4.55;;;20.50;99.90;;;;;;5037523;28;20177;-75
2022/07/24 07:24:36;;;;;;;4.53;4.13;;;20.50;99.90;;;;;;5037644;28;20200;-75
2022/07/24 07:27:02;;;;;;;4.45;4.03;;;20.60;99.90;;;;;;5037187;28;20181;-75
2022/07/24 07:29:27;;;;;;;4.20;3.80;;;20.70;99.90;;;;;;5037378;28;20219;-75
2022/07/24 07:31:53;;;;;;;4.70;3.85;;;20.90;99.90;;;;;;5037344;28;20268;-76
2022/07/24 07:34:19;;;;;;;4.10;3.70;;;21.00;99.90;;;;;;5020977;28;20219;-75
2022/07/24 07:36:44;;;;;;;4.45;3.85;;;21.20;99.90;;;;;;5020707;28;20557;-75
2022/07/24 07:39:10;;;;;;;3.70;3.40;;;21.30;99.90;;;;;;5053680;28;20215;-75
2022/07/24 07:41:36;;;;;;;5.63;3.75;;;21.40;99.90;;;;;;5037026;28;20184;-75
2022/07/24 07:44:01;;;;;;;3.75;3.45;;;21.60;99.90;;;;;;5053656;28;20639;-75
2022/07/24 07:46:27;;;;;;;3.92;3.60;;;21.70;99.90;;;;;;5036720;28;20599;-75
2022/07/24 07:48:53;;;;;;;3.75;3.30;;;21.80;99.90;;;;;;5053790;28;20177;-75
2022/07/24 07:51:19;;;;;;;3.95;3.58;;;21.90;99.90;;;;;;5044479;28;20662;-75
2022/07/24 07:53:45;;;;;;;5.40;3.53;;;22.10;99.90;;;;;;5051322;28;20185;-75
2022/07/24 07:56:11;;;;;;;4.30;3.38;;;22.10;99.90;;;;;;5053742;28;20219;-75
2022/07/24 07:58:37;;;;;;;6.93;3.53;;;22.30;99.90;;;;;;5036708;28;20581;-75
2022/07/24 08:01:02;;;;;;;3.80;3.50;;;22.40;99.90;;;;;;5053883;28;20640;-75
2022/07/24 08:03:28;;;;;;;3.67;3.38;;;22.50;99.90;;;;;;5037643;28;20530;-75
2022/07/24 08:05:53;;;;;;;4.25;3.10;;;22.60;99.90;;;;;;5037493;28;20200;-75
2022/07/24 08:08:19;;;;;;;3.50;3.20;;;22.80;99.90;;;;;;5040239;28;20187;-75
2022/07/24 08:10:45;;;;;;;3.75;3.45;;;22.80;99.90;;;;;;5024333;28;20298;-75
2022/07/24 08:13:12;;;;;;;4.30;3.40;;;23.00;99.90;;;;;;5057781;28;20658;-75
2022/07/24 08:15:38;;;;;;;3.80;3.42;;;23.10;99.90;;;;;;5024919;28;20200;-75
2022/07/24 08:18:04;;;;;;;3.88;3.42;;;23.10;99.90;;;;;;5057156;28;20196;-75
2022/07/24 08:20:30;;;;;;;3.90;3.60;;;23.30;99.90;;;;;;5040965;28;20180;-75
2022/07/24 08:22:55;;;;;;;4.20;3.78;;;23.40;99.90;;;;;;5040650;28;20184;-75
2022/07/24 08:25:21;;;;;;;4.15;3.75;;;23.50;99.90;;;;;;5057267;28;20189;-75
2022/07/24 08:27:47;;;;;;;4.25;3.85;;;23.70;99.90;;;;;;5040458;28;20177;-75
2022/07/24 08:30:14;;;;;;;4.03;3.60;;;23.80;99.90;;;;;;5057213;28;20169;-75
2022/07/24 08:32:40;;;;;;;3.92;3.63;;;23.90;99.90;;;;;;5024070;28;20247;-75
2022/07/24 08:35:06;;;;;;;4.10;3.70;;;23.90;99.90;;;;;;5057275;28;20189;-75
2022/07/24 08:37:39;;;;;;;4.80;4.20;;;23.90;99.90;;;;;;5023782;28;20230;-75
2022/07/24 08:40:06;;;;;;;4.20;3.80;;;24.10;99.90;;;;;;5057037;28;20176;-75
2022/07/24 08:42:34;;;;;;;4.45;4.05;;;24.20;99.90;;;;;;5074825;28;20174;-75
2022/07/24 08:44:59;;;;;;;4.18;3.80;;;24.40;99.90;;;;;;5057099;28;20193;-75
2022/07/24 08:47:25;;;;;;;4.25;3.80;;;24.50;99.90;;;;;;5040378;28;20645;-75
2022/07/24 08:49:55;;;;;;;4.40;4.00;;;24.60;99.90;;;;;;5038684;28;20177;-75
2022/07/24 08:52:22;;;;;;;4.57;3.58;;;24.80;99.90;;;;;;5018734;28;20184;-75
2022/07/24 08:54:48;;;;;;;4.03;3.63;;;24.90;99.90;;;;;;5074329;28;20213;-75
2022/07/24 08:57:14;;;;;;;4.05;3.50;;;25.10;99.90;;;;;;5056056;28;20264;-75
2022/07/24 08:59:39;;;;;;;4.95;3.47;;;25.10;96.30;;;;;;5039754;28;20299;-75
2022/07/24 09:02:05;;;;;;;4.22;3.90;;;25.20;96.70;;;;;;5039840;28;20184;-75
2022/07/24 09:04:42;;;;;;;4.03;3.60;;;25.30;96.90;;;;;;5039989;28;20256;-75
2022/07/24 09:07:22;;;;;;;5.13;3.33;;;25.50;96.40;;;;;;5056081;28;20244;-75
2022/07/24 09:09:59;;;;;;;4.00;3.60;;;25.70;96.70;;;;;;5058107;28;20149;-75
2022/07/24 09:12:25;;;;;;;5.80;3.55;;;25.90;96.70;;;;;;5056387;28;20527;-75
2022/07/24 09:14:51;;;;;;;4.72;4.13;;;26.10;94.80;;;;;;5023287;28;20193;-75
2022/07/24 09:17:21;;;;;;;4.30;3.92;;;26.10;93.80;;;;;;5056485;28;20196;-75
2022/07/24 09:19:55;;;;;;;4.53;3.88;;;26.10;94.30;;;;;;5056211;28;20188;-75
2022/07/24 09:22:36;;;;;;;4.88;4.07;;;26.20;93.60;;;;;;5056106;28;20267;-75
2022/07/24 09:25:18;;;;;;;4.20;3.80;;;26.30;93.90;;;;;;5074005;28;20675;-75
2022/07/24 09:27:48;;;;;;;4.47;4.07;;;26.40;93.10;;;;;;5055915;28;20215;-75
2022/07/24 09:30:24;;;;;;;3.90;3.55;;;26.60;93.50;;;;;;5056313;28;20181;-76
2022/07/24 09:33:00;;;;;;;4.75;3.70;;;26.70;92.10;;;;;;5056347;28;20268;-75
2022/07/24 09:35:34;;;;;;;6.50;4.03;;;26.80;91.70;;;;;;5056684;28;20250;-74
2022/07/24 09:38:05;;;;;;;4.10;3.80;;;26.90;91.00;;;;;;5073595;28;20253;-74
2022/07/24 09:40:33;;;;;;;5.28;4.40;;;26.90;90.30;;;;;;5039746;28;20161;-74
2022/07/24 09:43:15;;;;;;;7.60;6.60;;;26.90;90.30;;;;;;5056237;28;20177;-74
2022/07/24 09:45:57;;;;;;;4.72;3.92;;;26.80;89.80;;;;;;5055776;28;20192;-77
2022/07/24 09:48:28;;;;;;;4.72;4.10;;;27.10;91.50;;;;;;5055608;28;20172;-76
2022/07/24 09:50:57;;;;;;;5.13;3.75;;;27.30;90.30;;;;;;5056298;28;20177;-76
2022/07/24 09:53:26;;;;;;;15.82;10.38;;;27.50;89.50;;;;;;5039635;28;20183;-76
2022/07/24 09:56:06;;;;;;;10.55;7.75;;;27.70;90.60;;;;;;5039017;28;20216;-74
2022/07/24 09:58:34;;;;;;;4.82;4.20;;;27.90;89.70;;;;;;5039118;28;20632;-74
2022/07/24 10:01:01;;;;;;;4.68;4.00;;;28.00;84.90;;;;;;5023095;28;20177;-75
2022/07/24 10:03:33;;;;;;;4.88;3.92;;;28.00;83.30;;;;;;5039091;28;20179;-73
2022/07/24 10:06:03;;;;;;;4.03;3.63;;;28.00;79.70;;;;;;5055381;28;20228;-73
2022/07/24 10:08:31;;;;;;;5.28;4.78;;;27.90;80.00;;;;;;5039092;28;20537;-73
2022/07/24 10:10:57;;;;;;;6.28;4.20;;;27.70;78.90;;;;;;5055221;28;20183;-73
2022/07/24 10:13:30;;;;;;;5.85;4.00;;;28.00;79.70;;;;;;5022312;28;20639;-73
2022/07/24 10:16:14;;;;;;;4.47;3.70;;;28.10;79.90;;;;;;5056332;28;20200;-73
2022/07/24 10:19:04;;;;;;;14.52;7.90;;;28.20;76.00;;;;;;5072999;28;20200;-73
2022/07/24 10:21:37;;;;;;;4.75;4.10;;;28.40;76.40;;;;;;5038505;28;20197;-73
2022/07/24 10:24:09;;;;;;;5.80;4.40;;;28.50;76.10;;;;;;5038961;28;20173;-73
2022/07/24 10:26:42;;;;;;;4.00;3.70;;;28.50;76.00;;;;;;5054970;28;20288;-74
2022/07/24 10:29:11;;;;;;;5.65;3.95;;;28.70;75.80;;;;;;5054937;28;20187;-73
2022/07/24 10:31:43;;;;;;;4.65;4.05;;;28.80;73.10;;;;;;5054801;28;20173;-75
2022/07/24 10:37:36;;;;;;;4.85;4.30;;;28.50;72.50;;;;;;5072924;28;20638;-74
2022/07/24 10:40:36;;;;;;;4.60;4.18;;;28.80;73.20;;;;;;5054916;28;20179;-74
2022/07/24 10:43:05;;;;;;;4.90;4.15;;;29.10;70.40;;;;;;5054877;28;20319;-74
2022/07/24 10:45:31;;;;;;;4.53;3.83;;;29.30;68.80;;;;;;5054997;28;20246;-74
2022/07/24 10:47:57;;;;;;;4.20;3.80;;;29.40;68.20;;;;;;5054585;28;20183;-74
2022/07/24 10:51:03;;;;;;;4.40;4.00;;;29.20;67.20;;;;;;5055226;28;20230;-75
2022/07/24 10:53:38;;;;;;;4.30;3.90;;;29.10;65.80;;;;;;5055119;28;20177;-74
2022/07/24 10:56:20;;;;;;;4.70;4.20;;;29.10;66.50;;;;;;5056055;22;20274;-73
2022/07/24 10:59:11;;;;;;;4.28;3.53;;;29.20;64.80;;;;;;5013976;28;20206;-74
2022/07/24 11:01:44;;;;;;;4.18;3.80;;;29.50;64.70;;;;;;4998048;28;20179;-74
2022/07/24 11:04:19;;;;;;;4.55;4.15;;;29.50;63.40;;;;;;4998133;28;20197;-74
2022/07/24 11:07:13;;;;;;;4.65;3.95;;;29.80;65.80;;;;;;5031855;28;20256;-74
2022/07/24 11:10:07;;;;;;;4.53;4.15;;;30.10;63.20;;;;;;4998278;28;20185;-74
2022/07/24 11:12:42;;;;;;;4.05;3.75;;;30.10;61.10;;;;;;4984067;28;20178;-74
2022/07/24 11:17:52;;;;;;;6.57;4.00;;;29.90;59.70;;;;;;5017077;28;20252;-74
2022/07/24 11:20:21;;;;;;;4.20;3.78;;;30.00;62.10;;;;;;4982036;28;20178;-74
2022/07/24 11:22:50;;;;;;;4.20;3.85;;;30.20;60.80;;;;;;4998343;28;20245;-74
2022/07/24 11:25:17;;;;;;;4.43;4.13;;;30.30;58.20;;;;;;4998230;28;20204;-74
2022/07/24 11:27:45;;;;;;;4.22;3.83;;;30.60;59.10;;;;;;5013948;28;20234;-74
2022/07/24 11:30:12;;;;;;;4.18;3.88;;;30.90;58.30;;;;;;5014573;28;20163;-74
2022/07/24 11:32:40;;;;;;;4.85;4.10;;;30.90;59.00;;;;;;5014275;28;20204;-74
2022/07/24 11:35:08;;;;;;;4.30;4.00;;;31.10;57.40;;;;;;5014230;28;20222;-74
2022/07/24 11:37:35;;;;;;;4.90;4.00;;;31.00;55.40;;;;;;5014140;28;20198;-74
2022/07/24 11:40:01;;;;;;;4.88;3.78;;;30.90;55.30;;;;;;4998146;28;20209;-74
2022/07/24 11:42:27;;;;;;;4.95;3.72;;;30.60;55.70;;;;;;5000992;28;20202;-74
2022/07/24 11:44:52;;;;;;;4.30;3.90;;;30.50;55.90;;;;;;4985279;28;20190;-74
2022/07/24 11:47:24;;;;;;;4.50;4.10;;;30.80;55.90;;;;;;5001341;28;20186;-74
2022/07/24 11:50:00;;;;;;;4.03;3.55;;;30.70;54.90;;;;;;5035564;28;20255;-74
2022/07/24 11:52:38;;;;;;;4.32;3.95;;;30.40;55.70;;;;;;5018094;28;20238;-74
2022/07/24 11:55:07;;;;;;;4.45;4.05;;;30.80;56.50;;;;;;5017578;28;20245;-74
2022/07/24 11:57:39;;;;;;;4.00;3.67;;;31.30;56.00;;;;;;5017664;28;20265;-74
2022/07/24 12:00:11;;;;;;;4.55;3.90;;;31.90;54.40;;;;;;5017748;28;20198;-76
2022/07/24 12:02:42;;;;;;;4.40;4.00;;;31.90;52.10;;;;;;5018594;28;20253;-74
2022/07/24 12:05:08;;;;;;;5.28;3.75;;;31.70;51.80;;;;;;5018325;28;20264;-74
2022/07/24 12:07:35;;;;;;;4.13;3.72;;;31.60;51.20;;;;;;5017548;28;20579;-75
2022/07/24 12:10:02;;;;;;;4.20;3.80;;;31.40;52.20;;;;;;5017448;28;20174;-75
2022/07/24 12:12:28;;;;;;;4.20;3.75;;;31.50;51.50;;;;;;5001221;28;20182;-74
2022/07/24 12:15:08;;;;;;;4.22;3.83;;;31.60;50.50;;;;;;5034983;28;20162;-74
2022/07/24 12:17:52;;;;;;;4.20;3.80;;;31.70;51.00;;;;;;5000853;28;20178;-75
2022/07/24 12:20:25;;;;;;;3.90;3.60;;;32.00;51.40;;;;;;5035179;28;20632;-75
2022/07/24 12:22:52;;;;;;;4.25;3.92;;;32.20;49.60;;;;;;5017274;28;20181;-74
2022/07/24 12:25:18;;;;;;;4.57;4.00;;;31.80;48.80;;;;;;5017158;28;20195;-74
2022/07/24 12:27:47;;;;;;;4.38;3.97;;;31.90;49.50;;;;;;5017143;28;20221;-74
2022/07/24 12:30:18;;;;;;;5.45;3.80;;;31.60;49.40;;;;;;5017186;28;20166;-74
2022/07/24 12:32:54;;;;;;;4.50;3.83;;;31.80;49.20;;;;;;5000630;28;20224;-74
2022/07/24 12:35:20;;;;;;;3.90;3.60;;;31.80;48.70;;;;;;5016918;28;20595;-74
2022/07/24 12:37:45;;;;;;;4.18;3.78;;;32.00;48.40;;;;;;5016682;28;20220;-75
2022/07/24 12:40:26;;;;;;;4.32;3.90;;;32.20;50.10;;;;;;5034601;28;20163;-75
2022/07/24 12:43:09;;;;;;;4.13;3.72;;;32.40;48.00;;;;;;5000493;28;20244;-75
2022/07/24 12:45:35;;;;;;;5.18;3.58;;;32.60;46.60;;;;;;5015153;28;20193;-75
2022/07/24 12:48:21;;;;;;;4.00;3.70;;;32.30;46.10;;;;;;4996897;28;20654;-75
2022/07/24 12:51:04;;;;;;;4.97;3.97;;;32.40;45.80;;;;;;5015928;28;20208;-75
2022/07/24 12:53:32;;;;;;;3.97;3.60;;;32.40;46.10;;;;;;4985684;28;20190;-75
2022/07/24 12:56:13;;;;;;;3.88;3.58;;;33.10;48.20;;;;;;4981152;28;20242;-75